createdAt,value
2023-04-20T15:41:57.961Z,42.02
2023-04-20T15:47:26.586Z,41.69
2023-04-20T15:52:55.108Z,41.97
2023-04-20T15:58:23.419Z,42.43
2023-04-20T16:03:52.023Z,42.33
2023-04-20T16:09:20.759Z,43.08
2023-04-20T16:14:49.833Z,43.32
2023-04-20T16:20:18.780Z,43.73
2023-04-20T16:25:46.823Z,43.99
2023-04-20T16:31:14.663Z,43.81
2023-04-20T16:36:43.520Z,43.97
2023-04-20T16:42:10.610Z,43.45
2023-04-20T16:47:37.875Z,43.79
2023-04-20T16:53:05.708Z,44.12
2023-04-20T16:58:36.645Z,44.82
2023-04-20T17:04:21.395Z,45.33
2023-04-20T17:10:00.308Z,46.09
2023-04-20T17:16:20.792Z,46.65
2023-04-20T17:21:48.498Z,47.54
2023-04-20T17:27:16.333Z,48.23
2023-04-20T17:32:44.585Z,48.66
2023-04-20T17:38:11.641Z,49.33
2023-04-20T17:43:40.698Z,50.02
2023-04-20T17:49:07.851Z,50.79
2023-04-20T17:54:35.872Z,50.78
2023-04-20T18:00:04.051Z,51.33
2023-04-20T18:05:39.093Z,51.68
2023-04-20T18:11:07.538Z,52.14
2023-04-20T18:16:34.900Z,52.05
2023-04-20T18:22:02.446Z,52.55
2023-04-20T18:27:30.385Z,52.87
2023-04-20T18:32:58.295Z,53.44
2023-04-20T18:38:25.875Z,53.75
2023-04-20T18:43:54.146Z,54.85
2023-04-20T18:49:22.006Z,55.19
2023-04-20T18:54:49.065Z,55.72
2023-04-20T19:00:16.683Z,55.92
2023-04-20T19:05:44.041Z,56.35
2023-04-20T19:11:12.266Z,57.00
2023-04-20T19:16:39.875Z,57.29
2023-04-20T19:22:07.195Z,57.79
2023-04-20T19:27:34.954Z,57.53
2023-04-20T19:33:07.408Z,57.13
2023-04-20T19:38:37.697Z,57.07
2023-04-20T19:44:07.169Z,56.49
2023-04-20T19:49:35.503Z,56.71
2023-04-20T19:55:04.894Z,57.11
2023-04-20T20:00:32.345Z,57.44
2023-04-20T20:06:00.928Z,57.73
2023-04-20T20:11:28.766Z,58.50
2023-04-20T20:16:58.830Z,58.83
2023-04-20T20:22:27.404Z,59.80
2023-04-20T20:27:55.145Z,60.56
2023-04-20T20:33:22.547Z,60.84
2023-04-20T20:38:54.278Z,61.20
2023-04-20T20:44:22.407Z,61.40
2023-04-20T20:49:50.334Z,62.03
2023-04-20T20:55:18.399Z,62.21
2023-04-20T21:00:47.594Z,62.35
2023-04-20T21:06:16.396Z,62.54
2023-04-20T21:11:44.018Z,62.31
2023-04-20T21:17:11.279Z,62.87
2023-04-20T21:22:38.697Z,62.93
2023-04-20T21:28:06.140Z,62.97
2023-04-20T21:33:36.515Z,63.19
2023-04-20T21:39:04.264Z,63.83
2023-04-20T21:44:31.440Z,63.49
2023-04-20T21:49:58.277Z,64.39
2023-04-20T21:55:25.694Z,64.05
2023-04-20T22:00:53.450Z,64.37
2023-04-20T22:06:20.729Z,64.92
2023-04-20T22:11:50.158Z,64.45
2023-04-20T22:17:17.958Z,64.67
2023-04-20T22:22:46.745Z,65.13
2023-04-20T22:28:14.679Z,64.26
2023-04-20T22:33:42.593Z,65.16
2023-04-20T22:39:09.890Z,64.77
2023-04-20T22:44:37.452Z,65.28
2023-04-20T22:50:06.278Z,65.36
2023-04-20T22:55:33.374Z,65.42
2023-04-20T23:01:01.142Z,65.20
2023-04-20T23:06:29.902Z,65.25
2023-04-20T23:12:00.068Z,66.89
2023-04-20T23:17:29.048Z,67.11
2023-04-20T23:22:56.835Z,67.35
2023-04-20T23:28:24.339Z,66.56
2023-04-20T23:33:51.835Z,66.54
2023-04-20T23:39:20.979Z,66.50
2023-04-20T23:44:48.663Z,67.05
2023-04-20T23:50:16.088Z,66.86
2023-04-20T23:55:48.423Z,66.88
